Terminal Aerodrome Forecast
Issued by NWS

Home | Current Version | Previous Version | Text Only | Print | Product List | Glossary On
Versions: 1 2 3 4 5 6 7 8 9 10 11 12 13 14 15 16 17 18
000
FTUS43 KDLH 031200 AAA
TAFBRD
TAF AMD
KBRD 031203Z 0312/0412 18009KT P6SM SCT040 BKN070
      TEMPO 0312/0314 OVC025
     FM031700 17008KT P6SM VCTS SCT022 BKN035CB
     FM032200 VRB04KT 6SM BR VCSH SCT015 OVC025
     FM040300 33005KT 4SM BR BKN018
      TEMPO 0405/0409 1 1/2SM BR OVC011=

USA.gov is the U.S. government's official web portal to all federal, state and local government web resources and services.